This is the latest recevied weather packets stored in our database for station/object SP7WMI-13. If no packets are shown the sender has not sent any weather packets the latest 1 day(s).
| Time | Temp. | Humidity | Pressure | Rain* | Wind** | Luminosity | Snow |
|---|---|---|---|---|---|---|---|
| 1778013414 | 19.44° C | 88% | 1004.7 hPa | 0 mm | 0 m/s | - | - |
| 1778012511 | 20° C | 86% | 1004.8 hPa | 0 mm | 0 m/s | - | - |
| 1778011608 | 20.56° C | 82% | 1004.7 hPa | 0 mm | 0 m/s | - | - |
| 1778010705 | 20.56° C | 82% | 1004.8 hPa | 0 mm | 0 m/s | - | - |
| 1778009802 | 21.11° C | 79% | 1004.7 hPa | 0 mm | 0.45 m/s, 270° | - | - |
| 1778008899 | 21.11° C | 70% | 1004.7 hPa | 0 mm | 0 m/s | - | - |
| 1778007996 | 21.67° C | 65% | 1004.5 hPa | 0 mm | 0 m/s | - | - |
| 1778007093 | 22.22° C | 57% | 1004.2 hPa | 0 mm | 0 m/s | - | - |
| 1778006190 | 23.33° C | 45% | 1004.1 hPa | 0 mm | 0.89 m/s, 180° | - | - |
| 1778003481 | 25.56° C | 27% | 1003.6 hPa | 0 mm | 0 m/s | - | - |
| 1778002578 | 26.11° C | 26% | 1003.6 hPa | 0 mm | 0.89 m/s, 85° | - | - |
| 1778001675 | 26.67° C | 26% | 1003.7 hPa | 0 mm | 0 m/s | - | - |
| 1778000772 | 26.67° C | 25% | 1003.6 hPa | 0 mm | 0 m/s | - | - |
| 1777999869 | 27.22° C | 23% | 1003.7 hPa | 0 mm | 0.45 m/s, 296° | - | - |
| 1777998967 | 27.78° C | 21% | 1003.8 hPa | 0 mm | 0.45 m/s, 324° | - | - |
| 1777998062 | 27.22° C | 20% | 1003.6 hPa | 0 mm | 0.45 m/s, 326° | - | - |
| 1777997759 | 27.22° C | 19% | 1003.8 hPa | 0 mm | 4.92 m/s, 276° | - | - |
| 1777997393 | 27.78° C | 19% | 1003.7 hPa | 0 mm | 0.89 m/s, 286° | - | - |
| 1777996490 | 27.22° C | 20% | 1003.8 hPa | 0 mm | 0.45 m/s, 311° | - | - |
| 1777995587 | 27.22° C | 21% | 1003.8 hPa | 0 mm | 1.34 m/s, 284° | - | - |
| 1777994684 | 27.22° C | 21% | 1003.9 hPa | 0 mm | 1.34 m/s, 275° | - | - |
| 1777993781 | 27.78° C | 21% | 1003.9 hPa | 0 mm | 2.24 m/s, 274° | - | - |
| 1777992878 | 27.78° C | 21% | 1004 hPa | 0 mm | 0.89 m/s, 279° | - | - |
| 1777991975 | 28.33° C | 21% | 1004.1 hPa | 0 mm | 3.13 m/s, 270° | - | - |
| 1777991072 | 28.89° C | 20% | 1004.3 hPa | 0 mm | 0.45 m/s, 293° | - | - |
* Rain since midnight (hover to see other rain measurements)
** Current wind speed in m/s (hover to see current wind gust speed)